Latest Weather Observations for Grove

IDT60801

Issued at 5:35 pm EST Friday 19 September 2014 (issued every 30 minutes, with the page automatically refreshed every 10 minutes)

About weather observations | Map of weather stations | Latest weather observations for TAS | Other Formats
Station Details ID: 094220 Name: GROVE (RESEARCH STATION) Lat: -42.99 Lon: 147.07 Height: 65.0 m
Data from the previous 72 hours. | See also: Recent months at Grove
Date/Time
EST
Temp
°C
App
Temp
°C
Dew
Point
Rel
Hum
%
Delta-T
°C
Wind Press
QNH
hPa
Press
MSL
hPa
Rain
since 9 am
mm
Dir
 
Spd
km/h
Gust
km/h
Spd
kts
Gust
kts
19/05:30pm 11.3 6.6 5.2 66 2.8 SW 19 30 10 16 - - 0.0
19/05:00pm 11.4 6.6 4.6 63 3.1 WSW 19 33 10 18 - - 0.0
19/04:30pm 12.9 6.2 3.8 54 4.1 WSW 28 52 15 28 - - 0.0
19/04:02pm 12.4 5.4 2.0 49 4.5 SW 28 50 15 27 - - 0.0
19/04:00pm 12.3 5.3 2.1 49 4.4 SW 28 44 15 24 - - 0.0
19/03:30pm 14.1 7.8 1.4 42 5.5 WSW 24 43 13 23 - - 0.0
19/03:00pm 14.1 7.6 2.9 47 5.0 WSW 26 43 14 23 - - 0.0
19/02:37pm 13.9 7.0 2.6 46 5.0 SW 28 48 15 26 - - 0.0
19/02:30pm 14.1 8.7 2.6 46 5.1 SW 20 37 11 20 - - 0.0
19/02:00pm 13.4 5.9 1.3 43 5.2 SW 30 44 16 24 - - 0.0
19/01:30pm 13.4 5.6 1.6 44 5.1 SW 32 56 17 30 - - 0.0
19/01:21pm 13.3 6.4 2.4 47 4.8 SW 28 56 15 30 - - 0.0
19/01:00pm 13.8 8.5 3.1 48 4.8 W 20 39 11 21 - - 0.0
19/12:38pm 12.6 5.9 3.7 54 4.0 SW 28 57 15 31 - - 0.0
19/12:30pm 12.8 7.1 3.1 51 4.3 SW 22 39 12 21 - - 0.0
19/12:00pm 12.5 7.2 3.0 52 4.2 WSW 20 32 11 17 - - 0.0
19/11:30am 12.2 6.2 3.4 55 3.9 WSW 24 41 13 22 - - 0.0
19/11:12am 12.2 5.3 2.6 52 4.2 WSW 28 54 15 29 - - 0.0
19/11:00am 12.3 5.8 2.4 51 4.3 SW 26 39 14 21 - - 0.0
19/10:30am 12.3 8.0 5.4 63 3.2 SW 17 35 9 19 - - 0.0
19/10:00am 11.6 7.1 6.1 69 2.6 SW 19 39 10 21 - - 0.0
19/09:30am 11.2 6.5 6.1 71 2.4 SW 20 32 11 17 - - 0.0
19/09:00am 11.1 6.9 5.7 69 2.5 WSW 17 28 9 15 - - 3.0
19/08:30am 11.3 6.7 5.5 67 2.7 WSW 19 30 10 16 - - 3.0
19/08:00am 10.9 5.3 5.5 69 2.5 WSW 24 35 13 19 - - 3.0
19/07:30am 10.6 5.8 5.4 70 2.4 WSW 20 37 11 20 - - 3.0
19/07:00am 10.0 5.8 5.6 74 2.0 WSW 17 28 9 15 - - 3.0
19/06:30am 9.6 6.6 5.9 78 1.7 SW 11 17 6 9 - - 3.0
19/06:00am 9.7 5.5 5.8 77 1.8 WSW 17 32 9 17 - - 3.0
19/05:30am 9.7 5.5 5.8 77 1.8 WSW 17 28 9 15 - - 3.0
19/05:00am 9.5 4.7 5.8 78 1.7 SW 20 32 11 17 - - 3.0
19/04:30am 9.2 5.4 5.7 79 1.6 SW 15 24 8 13 - - 3.0
19/04:00am 9.3 4.1 5.3 76 1.8 SW 22 32 12 17 - - 3.0
19/03:30am 9.4 4.7 5.0 74 2.0 SW 19 32 10 17 - - 3.0
19/03:00am 9.7 4.1 5.3 74 2.0 WSW 24 41 13 22 - - 3.0
19/02:30am 9.3 5.1 5.8 79 1.6 SW 17 28 9 15 - - 3.0
19/02:00am 8.8 5.7 5.7 81 1.4 SW 11 19 6 10 - - 3.0
19/01:30am 8.4 5.7 5.8 84 1.2 SW 9 13 5 7 - - 3.0
19/01:00am 8.1 5.0 5.7 85 1.1 SW 11 17 6 9 - - 2.8
19/12:30am 7.8 4.6 5.3 84 1.1 SW 11 17 6 9 - - 2.8
19/12:00am 8.2 4.9 4.8 79 1.5 SW 11 15 6 8 - - 2.8
 
Date/Time
EST
Temp
°C
App
Temp
°C
Dew
Point
Rel
Hum
%
Delta-T
°C
Wind Press
QNH
hPa
Press
MSL
hPa
Rain
since 9 am
mm
Dir
 
Spd
km/h
Gust
km/h
Spd
kts
Gust
kts
18/11:30pm 7.2 4.9 4.7 84 1.1 WNW 6 17 3 9 - - 2.8
18/11:00pm 5.9 4.0 4.7 92 0.5 S 4 11 2 6 - - 2.6
18/10:30pm 5.6 4.3 4.2 91 0.6 CALM 0 0 0 0 - - 2.6
18/10:00pm 5.5 2.9 4.3 92 0.5 N 7 9 4 5 - - 2.6
18/09:30pm 6.3 3.7 4.4 88 0.8 NNW 7 11 4 6 - - 2.6
18/09:00pm 8.1 5.0 3.7 74 1.9 SSW 9 17 5 9 - - 2.6
18/08:30pm 8.2 4.3 3.3 71 2.1 WSW 13 22 7 12 - - 2.6
18/08:00pm 8.0 6.3 3.8 75 1.8 WSW 2 6 1 3 - - 2.6
18/07:30pm 8.4 5.6 3.3 70 2.2 S 7 11 4 6 - - 2.6
18/07:00pm 8.6 4.6 3.0 68 2.4 WSW 13 28 7 15 - - 2.6
18/06:30pm 8.3 4.9 4.2 75 1.8 SW 11 19 6 10 - - 2.6
18/06:00pm 8.3 4.9 4.2 75 1.8 SW 11 13 6 7 - - 2.6
18/05:30pm 8.7 3.2 3.9 72 2.1 W 22 43 12 23 - - 2.6
18/05:00pm 9.3 3.8 4.1 70 2.3 WSW 22 35 12 19 - - 2.6
18/04:30pm 9.6 3.7 3.9 67 2.5 WSW 24 39 13 21 - - 2.6
18/04:00pm 10.4 4.5 3.8 63 2.9 WSW 24 35 13 19 - - 2.6
18/03:30pm 10.7 7.4 4.5 65 2.8 W 11 19 6 10 - - 2.6
18/03:00pm 9.7 5.0 5.3 74 2.0 WSW 19 24 10 13 - - 2.6
18/02:30pm 8.5 3.9 5.4 81 1.4 SW 19 28 10 15 - - 2.6
18/02:00pm 7.8 4.8 6.0 88 0.8 SW 11 19 6 10 - - 2.4
18/01:30pm 7.9 2.5 4.5 79 1.5 SW 22 39 12 21 - - 1.2
18/01:00pm 10.0 5.7 3.3 63 2.9 W 15 22 8 12 - - 0.2
18/12:30pm 10.4 4.9 1.9 55 3.6 WSW 20 37 11 20 - - 0.2
18/12:00pm 10.3 5.8 4.0 65 2.8 W 17 28 9 15 - - 0.2
18/11:30am 9.3 4.1 2.5 62 2.9 SW 19 35 10 19 - - 0.2
18/11:00am 9.3 4.2 3.3 66 2.6 WSW 19 32 10 17 - - 0.2
18/10:30am 9.2 4.8 4.5 72 2.1 W 17 30 9 16 - - 0.2
18/10:00am 10.3 4.9 1.2 53 3.8 SW 19 35 10 19 - - 0.0
18/09:30am 9.6 5.6 3.1 64 2.8 WSW 13 28 7 15 - - 0.0
18/09:00am 7.8 4.9 4.6 80 1.4 WSW 9 22 5 12 - - 4.8
18/08:30am 7.5 4.6 4.5 81 1.3 SW 9 17 5 9 - - 4.8
18/08:00am 5.7 3.8 5.0 95 0.3 N 4 7 2 4 - - 4.8
18/07:30am 5.3 3.4 4.8 97 0.2 NNE 4 7 2 4 - - 4.8
18/07:00am 5.0 2.7 4.8 99 0.1 NNE 6 7 3 4 - - 4.8
18/06:30am 4.7 2.3 4.2 97 0.2 NNE 6 7 3 4 - - 4.8
18/06:00am 4.6 2.2 4.1 97 0.2 S 6 7 3 4 - - 4.8
18/05:30am 4.3 2.6 4.1 99 0.1 N 2 6 1 3 - - 4.8
18/05:00am 4.3 1.6 3.8 97 0.2 NE 7 9 4 5 - - 4.8
18/04:30am 4.0 1.5 3.8 99 0.1 NE 6 7 3 4 - - 4.8
18/04:00am 4.1 1.6 3.9 99 0.1 N 6 7 3 4 - - 4.8
18/03:30am 4.3 2.5 3.6 95 0.3 N 2 6 1 3 - - 4.8
18/03:00am 4.8 2.7 4.1 95 0.3 ENE 4 9 2 5 - - 4.8
18/02:30am 4.6 2.5 4.1 97 0.2 NE 4 7 2 4 - - 4.8
18/02:00am 4.7 2.9 3.7 93 0.4 ESE 2 7 1 4 - - 4.6
18/01:30am 4.8 1.7 3.6 92 0.5 S 9 13 5 7 - - 4.6
18/01:00am 4.8 1.7 3.6 92 0.5 S 9 15 5 8 - - 4.6
18/12:30am 5.2 2.1 3.5 89 0.7 SW 9 17 5 9 - - 4.6
18/12:00am 5.2 1.5 2.2 81 1.2 SSW 11 17 6 9 - - 3.6
 
Date/Time
EST
Temp
°C
App
Temp
°C
Dew
Point
Rel
Hum
%
Delta-T
°C
Wind Press
QNH
hPa
Press
MSL
hPa
Rain
since 9 am
mm
Dir
 
Spd
km/h
Gust
km/h
Spd
kts
Gust
kts
17/11:30pm 5.4 0.9 1.9 78 1.4 WSW 15 32 8 17 - - 3.2
17/11:00pm 5.5 0.9 1.8 77 1.5 WSW 15 20 8 11 - - 2.8
17/10:30pm 5.4 1.6 1.6 76 1.5 SSW 11 20 6 11 - - 2.6
17/10:00pm 5.7 1.4 1.2 73 1.8 SW 13 26 7 14 - - 2.6
17/09:30pm 5.6 1.3 1.3 74 1.7 SW 13 22 7 12 - - 2.6
17/09:00pm 5.8 0.3 0.7 70 2.0 SW 19 26 10 14 - - 2.6
17/08:30pm 5.1 0.7 0.1 70 1.9 SW 13 28 7 15 - - 2.6
17/08:00pm 5.2 1.5 0.0 69 2.0 SW 9 20 5 11 - - 2.6
17/07:30pm 5.9 1.8 -0.4 64 2.4 SW 11 20 6 11 - - 2.6
17/07:00pm 6.2 1.7 0.0 64 2.4 WSW 13 20 7 11 - - 2.6
17/06:30pm 6.6 1.4 0.2 63 2.5 W 17 24 9 13 - - 2.6
17/06:00pm 7.3 2.5 0.5 62 2.7 W 15 41 8 22 - - 2.6
17/05:30pm 7.3 3.1 1.4 66 2.4 WSW 13 24 7 13 - - 2.6
17/05:00pm 7.3 2.4 1.7 67 2.3 W 17 24 9 13 - - 2.6
17/04:30pm 7.2 2.2 1.5 67 2.3 W 17 26 9 14 - - 2.6
17/04:00pm 8.3 3.6 2.9 69 2.3 W 17 28 9 15 - - 2.6
17/03:32pm 7.5 -0.3 1.9 67 2.3 W 32 56 17 30 - - 2.6
17/03:30pm 7.6 0.1 1.5 65 2.5 W 30 46 16 25 - - 2.6
17/03:27pm 8.0 1.0 2.0 66 2.5 W 28 46 15 25 - - 2.6
17/03:00pm 8.8 2.6 2.1 63 2.8 WSW 24 43 13 23 - - 2.6
17/02:30pm 8.9 3.5 2.5 64 2.7 WSW 20 35 11 19 - - 2.6
17/02:00pm 8.6 3.2 2.4 65 2.6 WSW 20 35 11 19 - - 2.6
17/01:30pm 8.4 3.0 2.7 67 2.4 WSW 20 30 11 16 - - 2.6
17/01:00pm 7.8 3.4 2.8 70 2.1 SW 15 26 8 14 - - 2.6
17/12:30pm 7.3 2.9 2.8 73 1.9 SW 15 19 8 10 - - 2.6
17/12:00pm 7.3 3.3 3.0 74 1.8 SW 13 22 7 12 - - 2.6
17/11:30am 6.8 3.8 4.0 82 1.2 WSW 9 24 5 13 - - 2.6
17/11:00am 7.2 2.5 5.2 87 0.9 WSW 19 30 10 16 - - 1.8
17/10:30am 8.6 7.3 6.0 84 1.2 W 2 6 1 3 - - 0.8
17/10:00am 8.9 5.2 4.6 74 1.9 W 13 22 7 12 - - 0.2
17/09:30am 10.6 8.2 5.1 69 2.5 SSW 7 13 4 7 - - 0.0
17/09:00am 9.5 7.2 5.6 76 1.8 S 7 11 4 6 - - 0.0
17/08:30am 8.9 8.0 6.1 82 1.3 CALM 0 4 0 2 - - 0.0
17/08:00am 7.0 5.3 5.9 93 0.5 E 4 9 2 5 - - 0.0
17/07:30am 4.7 2.2 4.5 99 0.1 ENE 7 9 4 5 - - 0.0
17/07:00am 4.6 3.4 4.4 99 0.1 CALM 0 0 0 0 - - 0.0
17/06:30am 4.3 3.0 4.1 99 0.1 CALM 0 0 0 0 - - 0.0
17/06:00am 4.4 2.0 4.4 100 0.0 SSW 6 7 3 4 - - 0.0
17/05:30am 4.4 2.0 4.2 99 0.1 NNE 6 7 3 4 - - 0.0
17/05:00am 4.3 1.9 4.1 99 0.1 SSE 6 9 3 5 - - 0.0
17/04:30am 4.8 2.2 4.3 97 0.2 NNE 7 11 4 6 - - 0.0
17/04:00am 4.6 2.0 4.4 99 0.1 NNE 7 9 4 5 - - 0.0
17/03:30am 4.2 2.9 4.0 99 0.1 CALM 0 2 0 1 - - 0.0
17/03:00am 4.1 1.6 3.6 97 0.2 NNE 6 9 3 5 - - 0.0
17/02:30am 4.4 3.1 4.2 99 0.1 CALM 0 0 0 0 - - 0.0
17/02:00am 4.5 2.1 4.3 99 0.1 SW 6 11 3 6 - - 0.0
17/01:30am 4.9 3.3 4.4 97 0.2 SE 2 9 1 5 - - 0.0
17/01:00am 4.9 2.3 4.4 97 0.2 E 7 9 4 5 - - 0.0
17/12:30am 5.2 2.8 4.3 94 0.4 NNE 6 7 3 4 - - 0.0
17/12:00am 4.6 3.0 4.4 99 0.1 NE 2 6 1 3 - - 0.0
 
Date/Time
EST
Temp
°C
App
Temp
°C
Dew
Point
Rel
Hum
%
Delta-T
°C
Wind Press
QNH
hPa
Press
MSL
hPa
Rain
since 9 am
mm
Dir
 
Spd
km/h
Gust
km/h
Spd
kts
Gust
kts
16/11:30pm 4.3 2.6 3.8 97 0.2 NNE 2 6 1 3 - - 0.0
16/11:00pm 4.1 1.4 3.6 97 0.2 NNE 7 9 4 5 - - 0.0
16/10:30pm 4.3 1.6 3.8 97 0.2 NE 7 11 4 6 - - 0.0
16/10:00pm 4.7 2.1 4.2 97 0.2 N 7 9 4 5 - - 0.0
16/09:30pm 5.4 2.9 4.7 95 0.3 NE 7 7 4 4 - - 0.0
16/09:00pm 6.4 3.9 5.0 91 0.6 E 7 9 4 5 - - 0.0
16/08:30pm 6.8 4.1 5.5 91 0.6 N 9 13 5 7 - - 0.0
16/08:00pm 6.6 4.4 5.5 93 0.5 SE 6 11 3 6 - - 0.0
16/07:30pm 6.7 5.7 5.6 93 0.5 CALM 0 2 0 1 - - 0.0
16/07:00pm 7.9 5.9 6.4 90 0.7 NNW 6 6 3 3 - - 0.0
16/06:30pm 9.5 7.4 6.0 79 1.6 NNE 6 7 3 4 - - 0.0
16/06:00pm 11.5 9.2 5.7 67 2.7 NE 7 9 4 5 - - 0.0

Other Formats:

Comma delimited format used in spreadsheet applications
http://www.bom.gov.au/fwo/IDT60801/IDT60801.95977.axf

JavaScript Object Notation format (JSON) in row-major order
http://www.bom.gov.au/fwo/IDT60801/IDT60801.95977.json